createdAt,value
2018-06-25T00:01:32.785Z,11.90
2018-06-25T00:04:01.152Z,11.90
2018-06-25T00:06:29.481Z,12.00
2018-06-25T00:08:57.818Z,11.90
2018-06-25T00:11:26.120Z,11.90
2018-06-25T00:13:54.464Z,11.90
2018-06-25T00:16:22.800Z,12.00
2018-06-25T00:18:51.114Z,12.00
2018-06-25T00:21:19.472Z,12.00
2018-06-25T00:23:47.835Z,12.00
2018-06-25T00:26:16.137Z,12.00
2018-06-25T00:28:44.513Z,12.00
2018-06-25T00:31:12.831Z,12.10
2018-06-25T00:33:41.195Z,12.00
2018-06-25T00:36:09.547Z,12.00
2018-06-25T00:38:37.887Z,11.90
2018-06-25T00:41:06.261Z,11.90
2018-06-25T00:43:34.597Z,12.00
2018-06-25T00:46:02.950Z,12.00
2018-06-25T00:48:31.291Z,12.00
2018-06-25T00:50:59.605Z,12.00
2018-06-25T00:53:27.961Z,12.00
2018-06-25T00:55:56.284Z,11.90
2018-06-25T00:58:24.613Z,11.90
2018-06-25T01:00:52.943Z,11.90
2018-06-25T01:03:21.246Z,11.90
2018-06-25T01:05:49.612Z,12.00
2018-06-25T01:08:17.980Z,12.00
2018-06-25T01:10:46.310Z,11.90
2018-06-25T01:13:14.661Z,11.80
2018-06-25T01:15:43.012Z,11.80
2018-06-25T01:18:11.303Z,11.80
2018-06-25T01:20:39.680Z,11.80
2018-06-25T01:23:08.027Z,11.80
2018-06-25T01:25:36.371Z,11.80
2018-06-25T01:28:04.717Z,11.80
2018-06-25T01:30:33.074Z,11.80
2018-06-25T01:33:01.402Z,11.90
2018-06-25T01:35:29.733Z,11.80
2018-06-25T01:37:58.060Z,11.90
2018-06-25T01:40:26.395Z,11.80
2018-06-25T01:42:54.691Z,11.80
2018-06-25T01:45:23.029Z,11.90
2018-06-25T01:47:51.376Z,11.90
2018-06-25T01:52:47.797Z,11.70
2018-06-25T01:55:16.132Z,11.80
2018-06-25T01:57:44.456Z,11.70
2018-06-25T02:00:13.013Z,11.70
2018-06-25T02:02:41.367Z,11.80
2018-06-25T02:05:09.705Z,11.80
2018-06-25T02:07:38.004Z,11.70
2018-06-25T02:12:34.362Z,11.80
2018-06-25T02:15:02.695Z,11.80
2018-06-25T02:17:31.021Z,11.80
2018-06-25T02:19:59.344Z,11.80
2018-06-25T02:22:27.646Z,11.90
2018-06-25T02:24:55.972Z,11.90
2018-06-25T02:27:24.345Z,11.90
2018-06-25T02:29:52.784Z,11.90
2018-06-25T02:32:21.128Z,11.80
2018-06-25T02:34:49.471Z,11.90
2018-06-25T02:37:17.771Z,11.80
2018-06-25T02:39:46.088Z,11.80
2018-06-25T02:42:14.438Z,11.80
2018-06-25T02:44:42.813Z,11.80
2018-06-25T02:47:11.172Z,11.80
2018-06-25T02:49:39.560Z,11.70
2018-06-25T02:52:07.869Z,11.70
2018-06-25T02:54:36.188Z,11.70
2018-06-25T02:57:04.512Z,11.70
2018-06-25T02:59:32.849Z,11.70
2018-06-25T03:02:01.190Z,11.70
2018-06-25T03:04:29.521Z,11.70
2018-06-25T03:06:57.884Z,11.70
2018-06-25T03:09:26.192Z,11.70
2018-06-25T03:11:54.491Z,11.70
2018-06-25T03:14:22.808Z,11.70
2018-06-25T03:16:51.132Z,11.70
2018-06-25T03:19:19.459Z,11.60
2018-06-25T03:21:47.839Z,11.60
2018-06-25T03:24:16.157Z,11.60
2018-06-25T03:26:44.538Z,11.60
2018-06-25T03:29:12.847Z,11.60
2018-06-25T03:31:41.139Z,11.70
2018-06-25T03:34:09.480Z,11.80
2018-06-25T03:36:37.820Z,11.80
2018-06-25T03:39:08.356Z,11.80
2018-06-25T03:41:36.705Z,11.80
2018-06-25T03:44:05.081Z,11.80
2018-06-25T03:46:33.463Z,11.80
2018-06-25T03:49:01.827Z,11.90
2018-06-25T03:51:30.221Z,11.80
2018-06-25T03:53:58.517Z,11.80
2018-06-25T03:56:26.902Z,11.90
2018-06-25T03:58:55.215Z,11.90
2018-06-25T04:03:51.644Z,11.90
2018-06-25T04:06:20.241Z,11.90
2018-06-25T04:11:16.648Z,11.90
2018-06-25T04:13:44.951Z,11.90
2018-06-25T04:16:13.293Z,12.00
2018-06-25T04:18:41.629Z,12.00
2018-06-25T04:21:09.963Z,12.00
2018-06-25T04:23:38.355Z,12.10
2018-06-25T04:26:06.643Z,12.10
2018-06-25T04:28:34.940Z,12.20
2018-06-25T04:31:03.383Z,12.20
2018-06-25T04:33:31.683Z,12.20
2018-06-25T04:36:00.053Z,12.30
2018-06-25T04:38:28.398Z,12.30
2018-06-25T04:40:56.728Z,12.40
2018-06-25T04:43:25.047Z,12.40
2018-06-25T04:45:53.378Z,12.40
2018-06-25T04:48:21.699Z,12.40
2018-06-25T04:50:50.056Z,12.60
2018-06-25T04:53:18.372Z,12.60
2018-06-25T04:55:46.776Z,12.70
2018-06-25T04:58:15.110Z,12.80
2018-06-25T05:00:43.493Z,12.90
2018-06-25T05:03:11.848Z,12.90
2018-06-25T05:05:40.197Z,12.80
2018-06-25T05:08:08.525Z,12.70
2018-06-25T05:10:36.876Z,12.50
2018-06-25T05:13:05.222Z,12.40
2018-06-25T05:15:33.609Z,12.40
2018-06-25T05:20:30.272Z,12.40
2018-06-25T05:22:58.587Z,12.40
2018-06-25T05:25:26.923Z,12.40
2018-06-25T05:27:55.260Z,12.40
2018-06-25T05:30:23.605Z,12.40
2018-06-25T05:32:52.088Z,12.40
2018-06-25T05:35:20.569Z,12.40
2018-06-25T05:37:49.518Z,12.30
2018-06-25T05:40:17.915Z,12.10
2018-06-25T05:42:46.271Z,12.20
2018-06-25T05:45:14.783Z,12.10
2018-06-25T05:47:43.215Z,12.20
2018-06-25T05:50:11.663Z,12.10
2018-06-25T05:52:40.037Z,12.20
2018-06-25T05:55:08.556Z,12.20
2018-06-25T05:57:37.264Z,12.10
2018-06-25T06:00:05.867Z,12.20
2018-06-25T06:02:34.398Z,12.20
2018-06-25T06:05:02.819Z,12.30
2018-06-25T06:07:31.251Z,12.50
2018-06-25T06:09:59.681Z,12.70
2018-06-25T06:12:28.066Z,12.90
2018-06-25T06:14:56.460Z,12.90
2018-06-25T06:17:24.832Z,13.10
2018-06-25T06:19:53.245Z,13.20
2018-06-25T06:22:21.621Z,13.20
2018-06-25T06:24:50.011Z,13.20
2018-06-25T06:27:18.352Z,13.00
2018-06-25T06:29:46.686Z,13.00
2018-06-25T06:32:15.064Z,13.00
2018-06-25T06:34:43.402Z,13.00
2018-06-25T06:37:11.756Z,13.00
2018-06-25T06:39:40.127Z,12.90
2018-06-25T06:42:08.592Z,13.00
2018-06-25T06:44:36.971Z,13.10
2018-06-25T06:47:05.373Z,13.20
2018-06-25T06:49:33.799Z,13.40
2018-06-25T06:52:02.208Z,13.60
2018-06-25T06:54:30.639Z,13.60
2018-06-25T06:56:59.047Z,13.70
2018-06-25T06:59:27.366Z,13.90
2018-06-25T07:01:55.693Z,14.00
2018-06-25T07:04:24.037Z,14.20
2018-06-25T07:06:52.541Z,14.10
2018-06-25T07:09:20.892Z,14.20
2018-06-25T07:11:49.277Z,14.00
2018-06-25T07:14:17.708Z,14.00
2018-06-25T07:16:46.024Z,13.70
2018-06-25T07:19:14.390Z,13.80
2018-06-25T07:21:42.779Z,14.00
2018-06-25T07:24:11.158Z,14.00
2018-06-25T07:26:39.479Z,13.70
2018-06-25T07:29:07.847Z,14.00
2018-06-25T07:31:36.180Z,14.10
2018-06-25T07:34:04.750Z,14.20
2018-06-25T07:36:33.086Z,14.30
2018-06-25T07:39:01.435Z,14.30
2018-06-25T07:41:29.798Z,14.50
2018-06-25T07:43:58.208Z,14.70
2018-06-25T07:46:26.570Z,14.60
2018-06-25T07:48:55.008Z,15.00
2018-06-25T07:51:23.377Z,15.10
2018-06-25T07:53:51.732Z,15.10
2018-06-25T07:56:20.281Z,15.00
2018-06-25T07:58:48.666Z,15.10
2018-06-25T08:01:17.017Z,15.30
2018-06-25T08:03:45.519Z,15.80
2018-06-25T08:06:13.760Z,15.90
2018-06-25T08:08:42.243Z,16.30
2018-06-25T08:11:10.622Z,17.30
2018-06-25T08:13:38.998Z,18.40
2018-06-25T08:16:07.560Z,18.60
2018-06-25T08:21:04.036Z,16.80
2018-06-25T08:23:32.436Z,16.30
2018-06-25T08:28:35.541Z,16.20
2018-06-25T08:31:04.042Z,16.60
2018-06-25T08:33:32.415Z,17.00
2018-06-25T08:36:00.823Z,16.80
2018-06-25T08:38:29.214Z,17.20
2018-06-25T08:40:57.547Z,17.30
2018-06-25T08:43:25.998Z,16.60
2018-06-25T08:45:54.371Z,16.00
2018-06-25T08:48:22.737Z,15.60
2018-06-25T08:50:51.295Z,15.50
2018-06-25T08:53:19.657Z,15.80
2018-06-25T08:55:48.014Z,16.10
2018-06-25T08:58:16.389Z,16.10
2018-06-25T09:00:44.769Z,15.90
2018-06-25T09:03:13.265Z,16.00
2018-06-25T09:05:41.571Z,15.70
2018-06-25T09:08:09.921Z,15.40
2018-06-25T09:10:38.268Z,15.60
2018-06-25T09:13:06.744Z,16.40
2018-06-25T09:15:35.146Z,16.90
2018-06-25T09:18:03.476Z,16.80
2018-06-25T09:20:32.044Z,16.80
2018-06-25T09:23:00.452Z,16.60
2018-06-25T09:25:28.854Z,16.50
2018-06-25T09:28:01.551Z,16.50
2018-06-25T09:30:29.819Z,16.30
2018-06-25T09:33:04.569Z,16.30
2018-06-25T09:35:32.927Z,16.10
2018-06-25T09:38:01.364Z,15.90
2018-06-25T09:40:29.725Z,15.80
2018-06-25T09:42:58.055Z,15.70
2018-06-25T09:45:26.402Z,15.80
2018-06-25T09:47:54.729Z,16.10
2018-06-25T09:50:23.076Z,16.30
2018-06-25T09:52:51.417Z,16.60
2018-06-25T09:55:19.778Z,17.20
2018-06-25T09:57:48.153Z,17.40
2018-06-25T10:00:21.732Z,17.50
2018-06-25T10:02:50.064Z,17.40
2018-06-25T10:05:18.437Z,17.00
2018-06-25T10:07:46.818Z,16.80
2018-06-25T10:10:15.155Z,17.00
2018-06-25T10:12:43.529Z,16.60
2018-06-25T10:15:11.942Z,16.90
2018-06-25T10:17:40.297Z,17.00
2018-06-25T10:20:08.665Z,17.10
2018-06-25T10:22:37.016Z,17.30
2018-06-25T10:25:05.372Z,17.40
2018-06-25T10:27:33.821Z,17.20
2018-06-25T10:30:02.178Z,17.40
2018-06-25T10:32:30.541Z,17.40
2018-06-25T10:34:58.959Z,17.70
2018-06-25T10:37:27.303Z,17.60
2018-06-25T10:39:55.722Z,17.80
2018-06-25T10:42:24.225Z,17.60
2018-06-25T10:44:52.615Z,17.40
2018-06-25T10:47:21.050Z,17.20
2018-06-25T10:49:49.460Z,16.90
2018-06-25T10:52:17.808Z,16.60
2018-06-25T10:54:46.239Z,16.60
2018-06-25T10:57:14.697Z,16.70
2018-06-25T10:59:43.191Z,16.90
2018-06-25T11:02:11.508Z,17.10
2018-06-25T11:04:40.025Z,17.20
2018-06-25T11:07:08.594Z,17.30
2018-06-25T11:09:37.020Z,17.40
2018-06-25T11:12:05.429Z,17.60
2018-06-25T11:14:33.805Z,17.80
2018-06-25T11:17:02.309Z,17.90
2018-06-25T11:19:30.644Z,18.20
2018-06-25T11:21:59.102Z,18.30
2018-06-25T11:24:27.499Z,18.10
2018-06-25T11:26:55.945Z,17.80
2018-06-25T11:29:24.299Z,17.70
2018-06-25T11:31:52.704Z,17.20
2018-06-25T11:34:21.103Z,17.50
2018-06-25T11:36:49.493Z,17.60
2018-06-25T11:39:17.899Z,17.50
2018-06-25T11:41:46.401Z,17.70
2018-06-25T11:44:14.803Z,17.80
2018-06-25T11:46:43.228Z,18.10
2018-06-25T11:49:11.603Z,18.20
2018-06-25T11:51:40.028Z,18.20
2018-06-25T11:54:08.759Z,18.30
2018-06-25T11:56:37.160Z,18.40
2018-06-25T11:59:06.000Z,18.30
2018-06-25T12:01:34.366Z,18.20
2018-06-25T12:04:02.771Z,17.90
2018-06-25T12:06:31.125Z,17.40
2018-06-25T12:08:59.452Z,17.30
2018-06-25T12:11:27.978Z,17.50
2018-06-25T12:13:56.346Z,17.70
2018-06-25T12:16:24.719Z,17.80
2018-06-25T12:21:21.319Z,17.80
2018-06-25T12:23:49.673Z,18.10
2018-06-25T12:26:18.052Z,18.10
2018-06-25T12:28:46.508Z,18.20
2018-06-25T12:33:42.942Z,18.20
2018-06-25T12:36:11.872Z,18.30
2018-06-25T12:38:40.241Z,18.30
2018-06-25T12:41:09.341Z,18.30
2018-06-25T12:43:37.742Z,18.30
2018-06-25T12:46:06.180Z,18.40
2018-06-25T12:48:34.570Z,18.50
2018-06-25T12:51:03.005Z,18.40
2018-06-25T12:53:31.361Z,18.30
2018-06-25T12:55:59.814Z,18.20
2018-06-25T12:58:28.206Z,18.20
2018-06-25T13:00:56.596Z,18.00
2018-06-25T13:03:24.971Z,18.20
2018-06-25T13:05:53.372Z,18.30
2018-06-25T13:08:21.745Z,18.30
2018-06-25T13:10:50.456Z,18.40
2018-06-25T13:13:18.801Z,18.50
2018-06-25T13:15:47.153Z,18.60
2018-06-25T13:18:15.674Z,18.60
2018-06-25T13:20:44.073Z,18.60
2018-06-25T13:23:12.468Z,18.60
2018-06-25T13:25:40.931Z,18.60
2018-06-25T13:28:09.532Z,18.60
2018-06-25T13:30:37.959Z,18.60
2018-06-25T13:33:09.376Z,18.50
2018-06-25T13:35:37.794Z,18.50
2018-06-25T13:38:06.241Z,18.30
2018-06-25T13:40:34.639Z,18.30
2018-06-25T13:43:02.983Z,18.20
2018-06-25T13:45:31.387Z,18.30
2018-06-25T13:47:59.783Z,18.40
2018-06-25T13:50:28.210Z,18.20
2018-06-25T13:52:56.587Z,18.20
2018-06-25T13:55:25.007Z,18.10
2018-06-25T13:57:53.386Z,18.20
2018-06-25T14:00:21.761Z,18.40
2018-06-25T14:02:50.079Z,18.60
2018-06-25T14:05:18.464Z,18.70
2018-06-25T14:07:46.893Z,18.80
2018-06-25T14:10:15.276Z,18.90
2018-06-25T14:12:43.653Z,18.80
2018-06-25T14:15:12.051Z,19.00
2018-06-25T14:17:40.514Z,19.00
2018-06-25T14:20:08.907Z,19.20
2018-06-25T14:22:37.582Z,19.30
2018-06-25T14:25:05.953Z,19.10
2018-06-25T14:27:39.610Z,19.10
2018-06-25T14:30:13.766Z,18.90
2018-06-25T14:32:42.160Z,18.80
2018-06-25T14:35:14.505Z,18.80
2018-06-25T14:37:43.277Z,18.80
2018-06-25T14:40:11.661Z,18.80
2018-06-25T14:42:40.092Z,18.70
2018-06-25T14:45:08.765Z,18.70
2018-06-25T14:47:37.268Z,18.80
2018-06-25T14:50:05.664Z,18.90
2018-06-25T14:52:34.298Z,19.00
2018-06-25T14:55:02.948Z,19.10
2018-06-25T14:57:31.317Z,19.00
2018-06-25T15:00:00.103Z,18.90
2018-06-25T15:02:30.215Z,18.80
2018-06-25T15:04:58.632Z,18.80
2018-06-25T15:07:27.072Z,18.70
2018-06-25T15:09:55.451Z,18.70
2018-06-25T15:14:51.942Z,18.90
2018-06-25T15:17:20.380Z,18.90
2018-06-25T15:22:17.196Z,19.10
2018-06-25T15:24:45.709Z,19.10
2018-06-25T15:27:14.206Z,19.10
2018-06-25T15:29:42.591Z,19.00
2018-06-25T15:32:11.024Z,18.90
2018-06-25T15:34:39.524Z,18.70
2018-06-25T15:37:08.132Z,18.70
2018-06-25T15:39:36.640Z,18.70
2018-06-25T15:42:05.102Z,18.60
2018-06-25T15:44:33.622Z,18.60
2018-06-25T15:47:02.135Z,18.50
2018-06-25T15:49:30.799Z,18.40
2018-06-25T15:51:59.135Z,18.50
2018-06-25T15:54:27.674Z,18.70
2018-06-25T15:56:56.192Z,18.90
2018-06-25T15:59:26.586Z,19.10
2018-06-25T16:01:55.653Z,19.10
2018-06-25T16:04:24.019Z,19.10
2018-06-25T16:06:52.554Z,19.10
2018-06-25T16:09:20.835Z,19.00
2018-06-25T16:14:17.358Z,18.90
2018-06-25T16:16:45.810Z,19.00
2018-06-25T16:19:14.184Z,18.90
2018-06-25T16:21:42.529Z,18.90
2018-06-25T16:24:10.903Z,18.80
2018-06-25T16:26:39.251Z,18.90
2018-06-25T16:29:07.696Z,18.90
2018-06-25T16:31:36.114Z,18.90
2018-06-25T16:34:04.592Z,18.80
2018-06-25T16:36:32.924Z,18.70
2018-06-25T16:39:01.301Z,18.50
2018-06-25T16:41:29.652Z,18.30
2018-06-25T16:43:58.040Z,18.30
2018-06-25T16:46:26.488Z,18.10
2018-06-25T16:48:54.859Z,18.10
2018-06-25T16:51:23.177Z,17.90
2018-06-25T16:53:51.543Z,17.80
2018-06-25T16:56:19.877Z,17.60
2018-06-25T16:58:48.518Z,17.70
2018-06-25T17:01:16.891Z,17.70
2018-06-25T17:03:45.270Z,17.80
2018-06-25T17:06:13.608Z,17.90
2018-06-25T17:08:41.985Z,17.90
2018-06-25T17:11:10.376Z,17.90
2018-06-25T17:13:38.751Z,18.00
2018-06-25T17:16:07.146Z,17.90
2018-06-25T17:18:36.258Z,18.00
2018-06-25T17:21:04.591Z,18.10
2018-06-25T17:23:32.924Z,18.10
2018-06-25T17:26:01.590Z,18.00
2018-06-25T17:28:29.942Z,17.90
2018-06-25T17:30:58.763Z,17.80
2018-06-25T17:33:27.189Z,17.60
2018-06-25T17:35:55.806Z,17.60
2018-06-25T17:38:24.220Z,17.50
2018-06-25T17:40:52.597Z,17.50
2018-06-25T17:43:20.988Z,17.40
2018-06-25T17:45:49.363Z,17.40
2018-06-25T17:48:17.759Z,17.30
2018-06-25T17:50:46.153Z,17.20
2018-06-25T17:53:14.613Z,17.20
2018-06-25T17:55:42.976Z,17.20
2018-06-25T17:58:11.348Z,17.10
2018-06-25T18:00:39.769Z,17.10
2018-06-25T18:03:08.189Z,16.90
2018-06-25T18:05:36.590Z,16.90
2018-06-25T18:08:05.139Z,16.80
2018-06-25T18:10:33.632Z,16.90
2018-06-25T18:13:02.039Z,16.90
2018-06-25T18:15:30.463Z,16.90
2018-06-25T18:17:58.795Z,16.90
2018-06-25T18:20:27.312Z,16.80
2018-06-25T18:22:55.653Z,16.80
2018-06-25T18:25:27.291Z,16.70
2018-06-25T18:27:55.787Z,16.60
2018-06-25T18:30:24.201Z,16.50
2018-06-25T18:32:52.560Z,16.40
2018-06-25T18:35:20.922Z,16.30
2018-06-25T18:37:49.370Z,16.00
2018-06-25T18:40:17.750Z,15.90
2018-06-25T18:42:46.208Z,15.80
2018-06-25T18:45:14.599Z,15.80
2018-06-25T18:47:42.959Z,15.80
2018-06-25T18:50:11.291Z,15.80
2018-06-25T18:52:39.701Z,15.80
2018-06-25T18:55:08.127Z,15.70
2018-06-25T18:57:36.470Z,15.70
2018-06-25T19:00:06.343Z,15.70
2018-06-25T19:02:34.681Z,15.60
2018-06-25T19:05:03.149Z,15.50
2018-06-25T19:07:31.443Z,15.40
2018-06-25T19:09:59.756Z,15.50
2018-06-25T19:12:28.202Z,15.40
2018-06-25T19:14:56.549Z,15.30
2018-06-25T19:17:24.896Z,15.10
2018-06-25T19:19:53.484Z,14.90
2018-06-25T19:22:21.854Z,14.80
2018-06-25T19:24:50.257Z,14.60
2018-06-25T19:27:18.673Z,14.50
2018-06-25T19:29:47.074Z,14.40
2018-06-25T19:32:15.404Z,14.20
2018-06-25T19:34:43.759Z,14.10
2018-06-25T19:37:12.133Z,14.00
2018-06-25T19:39:40.697Z,13.90
2018-06-25T19:42:09.046Z,13.80
2018-06-25T19:44:37.473Z,13.80
2018-06-25T19:47:05.811Z,13.80
2018-06-25T19:49:34.262Z,13.80
2018-06-25T19:52:02.627Z,13.90
2018-06-25T19:54:30.943Z,13.90
2018-06-25T19:56:59.288Z,14.00
2018-06-25T19:59:27.725Z,14.00
2018-06-25T20:01:56.091Z,14.00
2018-06-25T20:04:24.404Z,13.90
2018-06-25T20:06:53.014Z,13.80
2018-06-25T20:09:21.364Z,13.70
2018-06-25T20:11:49.698Z,13.70
2018-06-25T20:14:18.112Z,13.60
2018-06-25T20:16:46.562Z,13.60
2018-06-25T20:19:14.799Z,13.50
2018-06-25T20:21:43.157Z,13.50
2018-06-25T20:24:11.539Z,13.40
2018-06-25T20:26:39.864Z,13.40
2018-06-25T20:29:08.203Z,13.40
2018-06-25T20:31:36.498Z,13.40
2018-06-25T20:34:05.078Z,13.50
2018-06-25T20:36:33.450Z,13.60
2018-06-25T20:39:01.805Z,13.60
2018-06-25T20:41:30.171Z,13.60
2018-06-25T20:43:58.507Z,13.60
2018-06-25T20:46:26.955Z,13.70
2018-06-25T20:48:55.310Z,13.80
2018-06-25T20:51:23.628Z,13.90
2018-06-25T20:53:51.973Z,14.00
2018-06-25T20:56:20.354Z,14.10
2018-06-25T20:58:48.667Z,14.10
2018-06-25T21:01:17.005Z,14.10
2018-06-25T21:03:45.419Z,14.10
2018-06-25T21:06:13.799Z,14.10
2018-06-25T21:08:42.311Z,14.20
2018-06-25T21:11:10.751Z,14.20
2018-06-25T21:13:39.065Z,14.20
2018-06-25T21:16:07.553Z,14.20
2018-06-25T21:18:35.881Z,14.10
2018-06-25T21:21:04.230Z,14.20
2018-06-25T21:23:32.539Z,14.20
2018-06-25T21:26:00.859Z,14.10
2018-06-25T21:28:30.018Z,14.10
2018-06-25T21:30:58.335Z,14.00
2018-06-25T21:33:26.655Z,13.90
2018-06-25T21:35:55.049Z,13.80
2018-06-25T21:38:23.350Z,13.80
2018-06-25T21:40:51.843Z,13.80
2018-06-25T21:43:20.148Z,13.70
2018-06-25T21:45:48.587Z,13.60
2018-06-25T21:48:16.909Z,13.60
2018-06-25T21:50:45.373Z,13.50
2018-06-25T21:53:13.734Z,13.50
2018-06-25T21:55:42.066Z,13.40
2018-06-25T21:58:10.415Z,13.40
2018-06-25T22:00:49.862Z,13.40
2018-06-25T22:05:48.618Z,13.30
2018-06-25T22:08:17.017Z,13.30
2018-06-25T22:10:45.428Z,13.30
2018-06-25T22:13:13.752Z,13.30
2018-06-25T22:15:42.075Z,13.30
2018-06-25T22:18:10.500Z,13.30
2018-06-25T22:20:38.897Z,13.30
2018-06-25T22:23:07.215Z,13.30
2018-06-25T22:25:35.580Z,13.30
2018-06-25T22:28:03.943Z,13.30
2018-06-25T22:30:32.309Z,13.30
2018-06-25T22:33:00.696Z,13.40
2018-06-25T22:35:29.004Z,13.30
2018-06-25T22:37:57.690Z,13.20
2018-06-25T22:42:54.217Z,13.20
2018-06-25T22:45:22.542Z,13.20
2018-06-25T22:47:50.956Z,13.10
2018-06-25T22:50:19.263Z,13.10
2018-06-25T22:52:47.575Z,13.00
2018-06-25T22:55:15.890Z,13.00
2018-06-25T22:57:44.213Z,13.00
2018-06-25T23:00:12.528Z,12.90
2018-06-25T23:02:40.848Z,12.90
2018-06-25T23:05:09.170Z,12.80
2018-06-25T23:07:37.507Z,12.80
2018-06-25T23:10:05.838Z,12.70
2018-06-25T23:12:34.223Z,12.70
2018-06-25T23:15:02.541Z,12.70
2018-06-25T23:17:30.875Z,12.80
2018-06-25T23:19:59.170Z,12.80
2018-06-25T23:22:27.518Z,12.80
2018-06-25T23:24:55.895Z,12.80
2018-06-25T23:27:24.199Z,12.80
2018-06-25T23:29:52.560Z,12.80
2018-06-25T23:32:20.907Z,12.80
2018-06-25T23:34:49.203Z,12.80
2018-06-25T23:37:17.520Z,12.80
2018-06-25T23:39:45.865Z,12.80
2018-06-25T23:42:14.381Z,12.80
2018-06-25T23:44:42.701Z,12.90
2018-06-25T23:47:11.021Z,12.90
2018-06-25T23:49:39.344Z,13.00
2018-06-25T23:52:07.668Z,13.00
2018-06-25T23:54:36.009Z,13.00
2018-06-25T23:57:04.446Z,13.00
2018-06-25T23:59:32.771Z,13.00
